createdAt,value
2019-04-22T00:01:13.680Z,13.59
2019-04-22T00:02:53.905Z,13.63
2019-04-22T00:04:32.283Z,13.63
2019-04-22T00:06:19.526Z,13.60
2019-04-22T00:08:06.847Z,13.56
2019-04-22T00:09:51.490Z,13.53
2019-04-22T00:11:28.857Z,13.50
2019-04-22T00:13:09.116Z,13.56
2019-04-22T00:14:42.028Z,13.52
2019-04-22T00:16:26.384Z,13.50
2019-04-22T00:21:19.519Z,13.46
2019-04-22T00:22:52.072Z,13.41
2019-04-22T00:24:27.587Z,13.37
2019-04-22T00:26:08.718Z,13.34
2019-04-22T00:30:56.251Z,13.34
2019-04-22T00:32:50.060Z,13.31
2019-04-22T00:34:29.401Z,13.27
2019-04-22T00:36:08.707Z,13.26
2019-04-22T00:37:49.504Z,13.32
2019-04-22T00:39:34.644Z,13.16
2019-04-22T00:41:00.935Z,13.26
2019-04-22T00:42:41.571Z,13.21
2019-04-22T00:44:25.634Z,13.18
2019-04-22T00:45:59.116Z,13.24
2019-04-22T00:47:43.387Z,13.11
2019-04-22T00:51:05.812Z,13.12
2019-04-22T00:52:38.897Z,13.15
2019-04-22T00:54:22.520Z,13.14
2019-04-22T00:56:07.384Z,13.11
2019-04-22T00:57:46.505Z,13.05
2019-04-22T00:59:23.753Z,13.01
2019-04-22T01:01:02.064Z,13.03
2019-04-22T01:02:41.513Z,13.00
2019-04-22T01:04:19.950Z,13.01
2019-04-22T01:05:57.102Z,12.95
2019-04-22T01:07:30.459Z,12.94
2019-04-22T01:09:24.755Z,13.02
2019-04-22T01:10:45.433Z,13.03
2019-04-22T01:12:26.545Z,12.92
2019-04-22T01:14:17.232Z,12.96
2019-04-22T01:15:40.514Z,12.92
2019-04-22T01:17:12.006Z,12.95
2019-04-22T01:18:49.074Z,12.91
2019-04-22T01:20:57.172Z,12.87
2019-04-22T01:22:09.917Z,12.94
2019-04-22T01:23:34.555Z,12.95
2019-04-22T01:25:16.229Z,12.95
2019-04-22T01:26:49.023Z,12.99
2019-04-22T01:28:23.845Z,12.95
2019-04-22T01:29:59.784Z,12.96
2019-04-22T01:31:26.932Z,12.92
2019-04-22T01:33:09.195Z,12.93
2019-04-22T01:34:49.889Z,12.84
2019-04-22T01:36:31.570Z,12.82
2019-04-22T01:38:08.038Z,12.88
2019-04-22T01:39:50.440Z,12.84
2019-04-22T01:41:37.618Z,12.74
2019-04-22T01:43:14.726Z,12.81
2019-04-22T01:44:40.802Z,12.67
2019-04-22T01:46:27.284Z,12.66
2019-04-22T01:48:00.636Z,12.76
2019-04-22T01:49:41.761Z,12.70
2019-04-22T01:51:08.102Z,12.78
2019-04-22T01:52:53.249Z,12.80
2019-04-22T01:54:35.441Z,12.87
2019-04-22T01:56:08.889Z,12.86
2019-04-22T01:57:41.519Z,12.85
2019-04-22T01:59:11.021Z,12.84
2019-04-22T02:01:01.499Z,12.75
2019-04-22T02:02:38.446Z,12.80
2019-04-22T02:04:12.020Z,12.81
2019-04-22T02:05:44.014Z,12.76
2019-04-22T02:07:26.283Z,12.73
2019-04-22T02:10:44.138Z,12.70
2019-04-22T02:12:19.592Z,12.65
2019-04-22T02:13:56.557Z,12.66
2019-04-22T02:15:38.054Z,12.60
2019-04-22T02:17:17.654Z,12.62
2019-04-22T02:18:52.463Z,12.57
2019-04-22T02:20:32.989Z,12.56
2019-04-22T02:22:17.660Z,12.63
2019-04-22T02:24:00.639Z,12.65
2019-04-22T02:25:32.346Z,12.71
2019-04-22T02:27:10.517Z,12.61
2019-04-22T02:30:30.605Z,12.65
2019-04-22T02:32:10.314Z,12.61
2019-04-22T02:35:23.883Z,12.59
2019-04-22T02:36:54.798Z,12.58
2019-04-22T02:41:44.431Z,12.58
2019-04-22T02:43:35.034Z,12.56
2019-04-22T02:44:55.922Z,12.60
2019-04-22T02:48:31.870Z,12.50
2019-04-22T02:49:47.049Z,12.40
2019-04-22T02:51:27.889Z,12.43
2019-04-22T02:53:01.634Z,12.34
2019-04-22T02:54:49.371Z,12.28
2019-04-22T02:56:27.634Z,12.26
2019-04-22T02:57:47.136Z,12.24
2019-04-22T02:59:34.489Z,12.25
2019-04-22T03:01:16.272Z,12.23
2019-04-22T03:02:54.588Z,12.29
2019-04-22T03:04:20.743Z,12.37
2019-04-22T03:07:40.970Z,12.29
2019-04-22T03:09:19.054Z,12.33
2019-04-22T03:11:11.108Z,12.33
2019-04-22T03:15:50.869Z,12.33
2019-04-22T03:17:38.946Z,12.30
2019-04-22T03:19:18.018Z,12.25
2019-04-22T03:20:41.571Z,12.19
2019-04-22T03:22:16.652Z,12.13
2019-04-22T03:24:06.029Z,12.16
2019-04-22T03:26:00.772Z,12.15
2019-04-22T03:27:08.240Z,12.27
2019-04-22T03:33:43.931Z,12.10
2019-04-22T03:38:41.508Z,12.09
2019-04-22T03:41:57.242Z,12.07
2019-04-22T03:43:42.174Z,12.06
2019-04-22T03:45:02.805Z,12.08
2019-04-22T03:46:42.402Z,12.00
2019-04-22T03:48:04.406Z,11.99
2019-04-22T03:49:55.995Z,11.94
2019-04-22T03:53:09.343Z,11.74
2019-04-22T03:56:47.565Z,11.90
2019-04-22T03:59:33.636Z,11.96
2019-04-22T04:01:18.424Z,12.03
2019-04-22T04:02:54.785Z,11.92
2019-04-22T04:12:37.767Z,11.82
2019-04-22T04:14:18.167Z,11.75
2019-04-22T04:15:40.696Z,11.68
2019-04-22T04:17:41.302Z,11.72
2019-04-22T04:19:31.425Z,11.73
2019-04-22T04:20:48.249Z,11.76
2019-04-22T04:22:30.508Z,11.87
2019-04-22T04:24:11.714Z,11.79
2019-04-22T04:25:42.811Z,11.78
2019-04-22T04:27:20.819Z,11.78
2019-04-22T04:30:31.997Z,11.82
2019-04-22T04:32:07.236Z,11.80
2019-04-22T04:33:40.617Z,11.70
2019-04-22T04:37:15.112Z,11.76
2019-04-22T04:38:51.790Z,11.75
2019-04-22T04:42:05.357Z,11.82
2019-04-22T04:43:25.825Z,11.94
2019-04-22T04:45:32.024Z,11.94
2019-04-22T04:47:06.012Z,11.98
2019-04-22T04:48:21.031Z,11.96
2019-04-22T04:49:57.511Z,11.86
2019-04-22T04:51:47.186Z,11.88
2019-04-22T04:53:12.487Z,11.93
2019-04-22T04:55:03.973Z,11.95
2019-04-22T04:56:34.794Z,12.04
2019-04-22T04:58:25.130Z,11.96
2019-04-22T04:59:50.788Z,12.00
2019-04-22T05:03:00.581Z,12.12
2019-04-22T05:04:48.715Z,12.09
2019-04-22T05:06:12.781Z,12.10
2019-04-22T05:08:00.727Z,12.13
2019-04-22T05:11:10.988Z,12.22
2019-04-22T05:12:55.802Z,12.22
2019-04-22T05:14:19.111Z,12.20
2019-04-22T05:16:11.481Z,12.23
2019-04-22T05:17:37.431Z,12.25
2019-04-22T05:21:00.023Z,12.25
2019-04-22T05:22:20.458Z,12.27
2019-04-22T05:24:02.417Z,12.28
2019-04-22T05:25:55.045Z,12.29
2019-04-22T05:27:20.048Z,12.41
2019-04-22T05:29:03.764Z,12.46
2019-04-22T05:30:34.226Z,12.52
2019-04-22T05:32:30.684Z,12.61
2019-04-22T05:33:48.249Z,12.75
2019-04-22T05:35:26.309Z,12.91
2019-04-22T05:37:08.704Z,12.99
2019-04-22T05:38:46.490Z,13.10
2019-04-22T05:40:24.354Z,13.24
2019-04-22T05:42:03.682Z,13.36
2019-04-22T05:43:38.658Z,13.50
2019-04-22T05:45:17.331Z,13.61
2019-04-22T05:46:52.815Z,13.67
2019-04-22T05:48:35.454Z,13.83
2019-04-22T05:50:09.450Z,13.97
2019-04-22T05:51:41.969Z,14.10
2019-04-22T05:53:19.822Z,14.24
2019-04-22T05:54:55.245Z,14.33
2019-04-22T05:58:10.380Z,14.64
2019-04-22T05:59:51.948Z,14.80
2019-04-22T06:01:38.995Z,14.84
2019-04-22T06:03:06.811Z,14.94
2019-04-22T06:04:46.379Z,15.06
2019-04-22T06:06:27.047Z,15.14
2019-04-22T06:08:10.618Z,15.18
2019-04-22T06:09:53.489Z,15.31
2019-04-22T06:11:25.604Z,15.51
2019-04-22T06:13:01.068Z,15.48
2019-04-22T06:14:39.806Z,15.56
2019-04-22T06:16:18.239Z,15.69
2019-04-22T06:18:09.407Z,15.74
2019-04-22T06:19:38.367Z,15.86
2019-04-22T06:21:18.684Z,15.89
2019-04-22T06:22:57.063Z,16.05
2019-04-22T06:26:35.742Z,16.26
2019-04-22T06:27:52.344Z,16.41
2019-04-22T06:31:06.657Z,16.49
2019-04-22T06:32:38.161Z,16.64
2019-04-22T06:34:20.284Z,16.75
2019-04-22T06:35:50.100Z,16.88
2019-04-22T06:37:55.031Z,16.89
2019-04-22T06:39:08.486Z,16.84
2019-04-22T06:40:46.793Z,16.80
2019-04-22T06:42:21.931Z,17.13
2019-04-22T06:44:04.314Z,16.97
2019-04-22T06:45:39.933Z,16.97
2019-04-22T06:47:27.137Z,16.90
2019-04-22T06:49:03.250Z,17.15
2019-04-22T06:53:48.059Z,17.30
2019-04-22T06:55:35.777Z,17.49
2019-04-22T06:57:06.186Z,17.51
2019-04-22T06:58:47.738Z,17.63
2019-04-22T07:02:06.444Z,17.54
2019-04-22T07:03:42.755Z,17.66
2019-04-22T07:05:18.093Z,17.90
2019-04-22T07:06:56.299Z,17.90
2019-04-22T07:09:04.076Z,18.14
2019-04-22T07:10:15.118Z,18.12
2019-04-22T07:11:49.998Z,18.05
2019-04-22T07:13:29.119Z,18.41
2019-04-22T07:15:12.739Z,18.14
2019-04-22T07:16:43.268Z,18.45
2019-04-22T07:18:25.035Z,18.68
2019-04-22T07:19:57.855Z,18.41
2019-04-22T07:21:38.908Z,18.68
2019-04-22T07:24:28.287Z,18.90
2019-04-22T07:24:59.047Z,18.71
2019-04-22T07:26:36.276Z,18.57
2019-04-22T07:28:17.720Z,18.90
2019-04-22T07:30:01.910Z,18.94
2019-04-22T07:31:40.952Z,19.04
2019-04-22T07:33:22.798Z,19.43
2019-04-22T07:34:51.919Z,19.39
2019-04-22T07:36:45.533Z,19.30
2019-04-22T07:38:10.888Z,19.75
2019-04-22T07:39:39.216Z,19.96
2019-04-22T07:41:30.128Z,20.11
2019-04-22T07:43:09.194Z,20.15
2019-04-22T07:44:44.939Z,20.34
2019-04-22T07:46:18.708Z,20.60
2019-04-22T07:48:02.620Z,20.58
2019-04-22T07:49:39.545Z,20.25
2019-04-22T07:51:26.783Z,20.19
2019-04-22T07:53:04.837Z,20.27
2019-04-22T07:54:41.656Z,20.22
2019-04-22T07:56:18.826Z,20.14
2019-04-22T07:58:01.723Z,20.60
2019-04-22T07:59:38.304Z,20.71
2019-04-22T08:01:18.538Z,20.98
2019-04-22T08:02:59.201Z,21.07
2019-04-22T08:07:50.550Z,20.77
2019-04-22T08:09:33.968Z,20.85
2019-04-22T08:11:08.176Z,20.98
2019-04-22T08:12:47.387Z,21.10
2019-04-22T08:14:24.597Z,21.22
2019-04-22T08:15:58.551Z,21.34
2019-04-22T08:17:53.394Z,21.32
2019-04-22T08:19:17.013Z,21.71
2019-04-22T08:21:07.558Z,21.53
2019-04-22T08:22:27.299Z,21.69
2019-04-22T08:24:07.843Z,21.44
2019-04-22T08:25:42.934Z,21.48
2019-04-22T08:27:22.581Z,22.01
2019-04-22T08:29:08.123Z,22.12
2019-04-22T08:30:48.964Z,22.07
2019-04-22T08:32:22.010Z,22.14
2019-04-22T08:34:06.401Z,22.44
2019-04-22T08:39:07.921Z,22.43
2019-04-22T08:40:47.244Z,22.77
2019-04-22T08:42:35.413Z,23.02
2019-04-22T08:44:01.192Z,23.19
2019-04-22T08:45:51.110Z,23.01
2019-04-22T08:47:30.931Z,23.26
2019-04-22T08:49:05.356Z,23.30
2019-04-22T08:50:44.269Z,22.83
2019-04-22T08:52:20.894Z,23.31
2019-04-22T08:54:17.738Z,23.06
2019-04-22T08:55:40.427Z,23.44
2019-04-22T08:57:18.337Z,23.36
2019-04-22T08:59:12.160Z,23.41
2019-04-22T09:00:49.954Z,23.80
2019-04-22T09:04:04.088Z,23.78
2019-04-22T09:07:28.781Z,23.58
2019-04-22T09:09:11.647Z,23.74
2019-04-22T09:10:51.919Z,23.61
2019-04-22T09:14:11.320Z,23.62
2019-04-22T09:15:55.514Z,23.75
2019-04-22T09:17:36.279Z,23.90
2019-04-22T09:19:15.130Z,24.09
2019-04-22T09:21:04.693Z,24.05
2019-04-22T09:22:44.042Z,24.08
2019-04-22T09:24:35.589Z,24.10
2019-04-22T09:26:01.389Z,24.27
2019-04-22T09:29:26.793Z,24.56
2019-04-22T09:31:01.955Z,24.57
2019-04-22T09:32:54.166Z,24.43
2019-04-22T09:34:35.436Z,24.66
2019-04-22T09:36:16.574Z,24.50
2019-04-22T09:38:12.503Z,24.87
2019-04-22T09:39:37.515Z,24.51
2019-04-22T09:41:15.281Z,24.64
2019-04-22T09:44:36.115Z,24.88
2019-04-22T09:46:10.165Z,25.07
2019-04-22T09:47:55.595Z,24.57
2019-04-22T09:49:56.623Z,24.70
2019-04-22T09:51:41.468Z,24.53
2019-04-22T09:53:22.489Z,24.75
2019-04-22T09:55:07.469Z,24.73
2019-04-22T09:56:49.326Z,24.21
2019-04-22T09:58:23.521Z,24.78
2019-04-22T10:00:08.950Z,24.52
2019-04-22T10:02:03.972Z,24.29
2019-04-22T10:03:20.336Z,24.64
2019-04-22T10:05:07.534Z,24.39
2019-04-22T10:06:40.314Z,24.94
2019-04-22T10:08:32.004Z,25.24
2019-04-22T10:10:09.076Z,24.97
2019-04-22T10:13:39.016Z,24.94
2019-04-22T10:15:00.566Z,25.00
2019-04-22T10:16:45.561Z,25.08
2019-04-22T10:18:26.339Z,25.13
2019-04-22T10:20:01.093Z,25.63
2019-04-22T10:23:25.314Z,25.77
2019-04-22T10:25:08.358Z,25.44
2019-04-22T10:26:54.983Z,25.13
2019-04-22T10:28:27.267Z,25.12
2019-04-22T10:33:05.739Z,25.48
2019-04-22T10:34:31.275Z,25.66
2019-04-22T10:36:07.739Z,25.76
2019-04-22T10:37:50.133Z,25.38
2019-04-22T10:39:35.352Z,25.79
2019-04-22T10:41:02.949Z,26.15
2019-04-22T10:42:43.401Z,25.92
2019-04-22T10:44:21.338Z,25.84
2019-04-22T10:45:59.906Z,25.20
2019-04-22T10:47:42.073Z,25.40
2019-04-22T10:49:22.401Z,25.53
2019-04-22T10:51:02.578Z,25.53
2019-04-22T10:52:49.637Z,25.54
2019-04-22T10:54:25.515Z,25.45
2019-04-22T10:56:11.057Z,25.48
2019-04-22T10:57:52.739Z,25.83
2019-04-22T10:59:28.916Z,25.98
2019-04-22T11:01:07.532Z,26.00
2019-04-22T11:02:47.967Z,26.24
2019-04-22T11:04:32.692Z,26.32
2019-04-22T11:06:09.608Z,26.34
2019-04-22T11:07:51.971Z,26.27
2019-04-22T11:09:25.311Z,26.48
2019-04-22T11:11:16.189Z,26.85
2019-04-22T11:12:39.462Z,26.54
2019-04-22T11:14:19.105Z,25.73
2019-04-22T11:15:54.998Z,25.57
2019-04-22T11:17:39.615Z,25.04
2019-04-22T11:19:19.391Z,25.28
2019-04-22T11:20:59.994Z,25.50
2019-04-22T11:22:40.713Z,25.17
2019-04-22T11:24:16.819Z,25.46
2019-04-22T11:25:57.520Z,25.55
2019-04-22T11:27:38.969Z,25.60
2019-04-22T11:29:17.670Z,25.98
2019-04-22T11:30:56.407Z,25.61
2019-04-22T11:32:32.771Z,25.67
2019-04-22T11:34:11.024Z,25.49
2019-04-22T11:35:47.964Z,25.42
2019-04-22T11:37:24.800Z,25.96
2019-04-22T11:39:03.931Z,25.57
2019-04-22T11:40:42.186Z,25.43
2019-04-22T11:42:25.955Z,25.36
2019-04-22T11:44:01.438Z,25.41
2019-04-22T11:45:46.975Z,25.37
2019-04-22T11:47:29.673Z,25.88
2019-04-22T11:49:13.964Z,25.85
2019-04-22T11:51:00.063Z,25.84
2019-04-22T11:52:38.084Z,26.25
2019-04-22T11:54:18.906Z,26.40
2019-04-22T11:56:00.483Z,26.47
2019-04-22T11:57:39.182Z,26.49
2019-04-22T11:59:22.544Z,26.58
2019-04-22T12:01:03.174Z,26.89
2019-04-22T12:02:44.901Z,27.02
2019-04-22T12:04:33.873Z,26.71
2019-04-22T12:06:05.987Z,26.41
2019-04-22T12:07:46.952Z,26.27
2019-04-22T12:09:24.102Z,26.54
2019-04-22T12:11:03.842Z,26.62
2019-04-22T12:12:37.421Z,26.55
2019-04-22T12:14:18.083Z,25.84
2019-04-22T12:15:58.859Z,26.09
2019-04-22T12:17:36.056Z,26.02
2019-04-22T12:19:13.733Z,25.87
2019-04-22T12:20:57.308Z,25.16
2019-04-22T12:22:38.821Z,25.21
2019-04-22T12:24:15.179Z,25.24
2019-04-22T12:25:59.943Z,25.29
2019-04-22T12:27:32.394Z,25.04
2019-04-22T12:29:08.928Z,25.25
2019-04-22T12:30:45.666Z,24.90
2019-04-22T12:32:23.631Z,24.86
2019-04-22T12:34:01.289Z,25.11
2019-04-22T12:35:42.519Z,25.43
2019-04-22T12:37:25.773Z,25.28
2019-04-22T12:38:57.968Z,25.11
2019-04-22T12:40:43.397Z,25.18
2019-04-22T12:42:13.081Z,24.98
2019-04-22T12:43:49.493Z,25.19
2019-04-22T12:45:26.656Z,25.27
2019-04-22T12:47:04.351Z,25.22
2019-04-22T12:48:41.121Z,25.09
2019-04-22T12:50:24.089Z,25.42
2019-04-22T12:52:00.995Z,25.66
2019-04-22T12:53:40.287Z,25.52
2019-04-22T12:55:17.599Z,25.78
2019-04-22T12:56:59.619Z,25.61
2019-04-22T12:58:31.718Z,25.17
2019-04-22T13:00:11.372Z,25.57
2019-04-22T13:01:51.171Z,25.28
2019-04-22T13:03:36.124Z,24.52
2019-04-22T13:05:16.299Z,24.75
2019-04-22T13:06:55.588Z,24.86
2019-04-22T13:08:49.869Z,24.76
2019-04-22T13:10:41.673Z,24.85
2019-04-22T13:12:11.079Z,24.81
2019-04-22T13:13:49.332Z,24.81
2019-04-22T13:15:24.628Z,25.10
2019-04-22T13:17:01.868Z,24.98
2019-04-22T13:18:43.682Z,24.82
2019-04-22T13:20:20.133Z,25.03
2019-04-22T13:21:56.423Z,25.04
2019-04-22T13:23:34.069Z,24.88
2019-04-22T13:25:12.287Z,25.07
2019-04-22T13:26:50.580Z,25.10
2019-04-22T13:28:27.279Z,25.13
2019-04-22T13:30:06.269Z,25.15
2019-04-22T13:31:44.855Z,25.07
2019-04-22T13:33:25.042Z,24.57
2019-04-22T13:35:09.034Z,24.46
2019-04-22T13:36:46.627Z,24.57
2019-04-22T13:38:22.757Z,24.23
2019-04-22T13:39:58.959Z,24.15
2019-04-22T13:41:49.744Z,24.42
2019-04-22T13:43:20.946Z,24.41
2019-04-22T13:45:00.145Z,24.50
2019-04-22T13:46:38.745Z,24.15
2019-04-22T13:48:40.047Z,24.62
2019-04-22T13:52:29.309Z,23.82
2019-04-22T13:55:21.808Z,24.11
2019-04-22T13:56:51.887Z,24.16
2019-04-22T13:58:35.418Z,24.20
2019-04-22T14:00:02.892Z,24.06
2019-04-22T14:01:54.770Z,24.07
2019-04-22T14:03:54.434Z,24.03
2019-04-22T14:05:31.059Z,24.08
2019-04-22T14:07:10.644Z,24.11
2019-04-22T14:08:51.435Z,24.34
2019-04-22T14:10:34.486Z,24.23
2019-04-22T14:12:17.908Z,24.19
2019-04-22T14:14:02.898Z,24.25
2019-04-22T14:15:42.275Z,24.14
2019-04-22T14:17:18.804Z,24.18
2019-04-22T14:18:56.001Z,24.25
2019-04-22T14:20:33.067Z,24.11
2019-04-22T14:22:09.627Z,23.91
2019-04-22T14:23:48.423Z,23.94
2019-04-22T14:25:32.679Z,23.99
2019-04-22T14:27:22.144Z,23.76
2019-04-22T14:28:51.784Z,23.82
2019-04-22T14:30:30.543Z,23.93
2019-04-22T14:32:13.260Z,23.96
2019-04-22T14:33:47.264Z,23.35
2019-04-22T14:35:38.159Z,23.18
2019-04-22T14:37:16.330Z,23.20
2019-04-22T14:38:54.410Z,23.51
2019-04-22T14:40:34.704Z,23.66
2019-04-22T14:44:08.382Z,23.48
2019-04-22T14:45:04.939Z,23.73
2019-04-22T14:46:20.432Z,24.04
2019-04-22T14:47:54.053Z,24.23
2019-04-22T14:49:31.899Z,24.47
2019-04-22T14:51:00.970Z,24.72
2019-04-22T14:52:45.917Z,24.67
2019-04-22T14:54:24.177Z,24.34
2019-04-22T14:55:50.467Z,24.33
2019-04-22T14:57:27.769Z,24.23
2019-04-22T14:59:05.085Z,24.35
2019-04-22T15:00:46.301Z,24.44
2019-04-22T15:02:25.634Z,24.47
2019-04-22T15:04:19.509Z,24.45
2019-04-22T15:06:02.091Z,24.66
2019-04-22T15:07:39.452Z,24.41
2019-04-22T15:09:16.217Z,24.35
2019-04-22T15:10:51.827Z,24.34
2019-04-22T15:12:36.717Z,24.14
2019-04-22T15:14:09.688Z,23.91
2019-04-22T15:16:19.870Z,23.73
2019-04-22T15:18:17.654Z,23.71
2019-04-22T15:20:09.902Z,23.44
2019-04-22T15:21:47.843Z,23.64
2019-04-22T15:23:44.532Z,23.52
2019-04-22T15:25:24.593Z,23.70
2019-04-22T15:27:08.752Z,23.53
2019-04-22T15:28:53.546Z,23.65
2019-04-22T15:30:35.617Z,23.58
2019-04-22T15:32:13.534Z,23.79
2019-04-22T15:33:58.578Z,23.82
2019-04-22T15:35:58.732Z,23.62
2019-04-22T15:37:35.249Z,23.66
2019-04-22T15:39:21.093Z,23.57
2019-04-22T15:41:00.792Z,23.50
2019-04-22T15:42:45.259Z,23.48
2019-04-22T15:44:19.841Z,23.39
2019-04-22T15:45:58.694Z,23.16
2019-04-22T15:47:35.912Z,23.01
2019-04-22T15:49:11.913Z,22.82
2019-04-22T15:50:48.828Z,22.70
2019-04-22T15:52:37.581Z,22.59
2019-04-22T15:54:07.661Z,22.59
2019-04-22T15:55:46.959Z,22.51
2019-04-22T15:57:26.648Z,22.43
2019-04-22T15:59:17.222Z,22.38
2019-04-22T16:00:52.891Z,22.32
2019-04-22T16:02:47.701Z,22.22
2019-04-22T16:04:24.281Z,22.18
2019-04-22T16:06:06.146Z,22.18
2019-04-22T16:07:42.286Z,22.04
2019-04-22T16:09:22.749Z,22.11
2019-04-22T16:11:04.078Z,21.98
2019-04-22T16:12:57.405Z,22.13
2019-04-22T16:14:35.073Z,22.12
2019-04-22T16:16:12.318Z,22.07
2019-04-22T16:17:48.817Z,22.02
2019-04-22T16:19:25.439Z,21.84
2019-04-22T16:21:11.184Z,21.72
2019-04-22T16:23:24.478Z,21.80
2019-04-22T16:25:22.931Z,21.58
2019-04-22T16:27:18.666Z,21.54
2019-04-22T16:29:01.310Z,21.53
2019-04-22T16:30:37.373Z,21.43
2019-04-22T16:32:13.677Z,21.41
2019-04-22T16:33:54.381Z,21.42
2019-04-22T16:35:44.717Z,21.44
2019-04-22T16:37:25.043Z,21.31
2019-04-22T16:39:04.686Z,21.30
2019-04-22T16:40:40.851Z,21.28
2019-04-22T16:42:33.167Z,21.22
2019-04-22T16:44:00.797Z,21.09
2019-04-22T16:45:40.162Z,20.99
2019-04-22T16:47:19.561Z,20.97
2019-04-22T16:48:58.838Z,20.97
2019-04-22T16:50:38.348Z,20.86
2019-04-22T16:52:18.270Z,20.79
2019-04-22T16:53:57.858Z,20.79
2019-04-22T16:55:41.334Z,20.63
2019-04-22T16:57:26.029Z,20.66
2019-04-22T16:59:08.836Z,20.53
2019-04-22T17:00:47.088Z,20.49
2019-04-22T17:03:08.882Z,20.45
2019-04-22T17:05:21.493Z,20.47
2019-04-22T17:06:57.849Z,20.42
2019-04-22T17:08:39.011Z,20.38
2019-04-22T17:10:27.950Z,20.34
2019-04-22T17:12:06.092Z,20.39
2019-04-22T17:13:50.171Z,20.33
2019-04-22T17:15:33.388Z,20.35
2019-04-22T17:17:18.278Z,20.32
2019-04-22T17:18:54.105Z,20.32
2019-04-22T17:20:36.134Z,20.35
2019-04-22T17:22:11.460Z,20.36
2019-04-22T17:23:47.677Z,20.41
2019-04-22T17:25:32.027Z,20.36
2019-04-22T17:27:06.476Z,20.41
2019-04-22T17:28:49.233Z,20.42
2019-04-22T17:30:39.209Z,20.36
2019-04-22T17:32:19.228Z,20.23
2019-04-22T17:33:59.058Z,20.10
2019-04-22T17:35:44.878Z,20.01
2019-04-22T17:37:25.833Z,19.96
2019-04-22T17:39:15.910Z,19.87
2019-04-22T17:40:51.248Z,19.83
2019-04-22T17:42:39.852Z,19.74
2019-04-22T17:44:31.133Z,19.66
2019-04-22T17:46:19.571Z,19.49
2019-04-22T17:48:23.618Z,19.40
2019-04-22T17:50:14.480Z,19.27
2019-04-22T17:52:07.579Z,19.12
2019-04-22T17:53:55.007Z,18.96
2019-04-22T17:55:40.443Z,18.79
2019-04-22T17:57:21.197Z,18.60
2019-04-22T17:59:03.934Z,18.47
2019-04-22T18:00:47.263Z,18.37
2019-04-22T18:02:29.558Z,18.25
2019-04-22T18:04:01.003Z,18.14
2019-04-22T18:05:49.598Z,18.06
2019-04-22T18:07:45.772Z,17.96
2019-04-22T18:09:33.204Z,17.86
2019-04-22T18:11:10.545Z,17.80
2019-04-22T18:13:14.158Z,17.69
2019-04-22T18:14:41.666Z,17.57
2019-04-22T18:16:18.416Z,17.46
2019-04-22T18:18:09.130Z,17.27
2019-04-22T18:19:39.622Z,17.16
2019-04-22T18:21:23.274Z,17.02
2019-04-22T18:22:56.984Z,16.96
2019-04-22T18:24:58.328Z,16.84
2019-04-22T18:26:44.950Z,16.73
2019-04-22T18:28:30.098Z,16.64
2019-04-22T18:30:14.461Z,16.56
2019-04-22T18:31:55.776Z,16.51
2019-04-22T18:33:38.618Z,16.37
2019-04-22T18:35:29.814Z,16.29
2019-04-22T18:37:15.659Z,16.20
2019-04-22T18:39:04.553Z,16.16
2019-04-22T18:40:49.194Z,16.10
2019-04-22T18:42:24.378Z,15.99
2019-04-22T18:44:20.220Z,16.02
2019-04-22T18:46:00.211Z,15.90
2019-04-22T18:47:38.692Z,15.85
2019-04-22T18:49:26.260Z,15.84
2019-04-22T18:51:24.690Z,15.75
2019-04-22T18:53:12.726Z,15.62
2019-04-22T18:55:04.231Z,15.49
2019-04-22T18:56:59.530Z,15.47
2019-04-22T18:58:30.460Z,15.35
2019-04-22T19:00:02.680Z,15.20
2019-04-22T19:01:37.679Z,15.11
2019-04-22T19:03:21.656Z,15.07
2019-04-22T19:05:03.608Z,15.03
2019-04-22T19:07:01.768Z,15.05
2019-04-22T19:08:31.457Z,14.98
2019-04-22T19:10:17.404Z,14.97
2019-04-22T19:14:07.561Z,14.86
2019-04-22T19:16:00.568Z,14.86
2019-04-22T19:17:35.514Z,14.81
2019-04-22T19:19:38.371Z,14.86
2019-04-22T19:21:13.195Z,14.81
2019-04-22T19:23:00.559Z,14.88
2019-04-22T19:24:34.452Z,14.84
2019-04-22T19:26:30.224Z,14.79
2019-04-22T19:28:09.131Z,14.78
2019-04-22T19:29:39.879Z,14.74
2019-04-22T19:31:40.976Z,14.74
2019-04-22T19:33:23.910Z,14.67
2019-04-22T19:35:03.762Z,14.67
2019-04-22T19:36:51.337Z,14.59
2019-04-22T19:38:21.968Z,14.50
2019-04-22T19:40:20.845Z,14.44
2019-04-22T19:41:50.267Z,14.45
2019-04-22T19:43:30.929Z,14.37
2019-04-22T19:45:09.158Z,14.33
2019-04-22T19:47:06.537Z,14.28
2019-04-22T19:48:38.943Z,14.22
2019-04-22T19:50:45.304Z,14.22
2019-04-22T19:52:18.896Z,14.24
2019-04-22T19:53:57.723Z,14.15
2019-04-22T19:55:50.987Z,14.12
2019-04-22T19:57:27.740Z,14.11
2019-04-22T19:59:07.491Z,13.95
2019-04-22T20:01:22.068Z,13.92
2019-04-22T20:03:36.315Z,13.91
2019-04-22T20:05:30.086Z,13.92
2019-04-22T20:07:12.679Z,13.84
2019-04-22T20:09:09.138Z,13.83
2019-04-22T20:10:48.885Z,13.86
2019-04-22T20:12:21.308Z,13.87
2019-04-22T20:14:03.266Z,13.81
2019-04-22T20:15:33.510Z,13.88
2019-04-22T20:17:18.689Z,13.84
2019-04-22T20:18:59.556Z,13.80
2019-04-22T20:20:47.243Z,13.81
2019-04-22T20:24:06.744Z,13.77
2019-04-22T20:25:57.605Z,13.69
2019-04-22T20:27:47.576Z,13.59
2019-04-22T20:29:30.512Z,13.59
2019-04-22T20:31:03.769Z,13.47
2019-04-22T20:32:41.300Z,13.45
2019-04-22T20:34:28.322Z,13.51
2019-04-22T20:36:12.580Z,13.45
2019-04-22T20:38:07.606Z,13.41
2019-04-22T20:39:28.377Z,13.34
2019-04-22T20:41:02.464Z,13.26
2019-04-22T20:42:55.521Z,13.22
2019-04-22T20:44:33.512Z,13.24
2019-04-22T20:46:14.915Z,13.20
2019-04-22T20:47:45.486Z,13.23
2019-04-22T20:49:36.621Z,13.18
2019-04-22T20:51:11.330Z,13.15
2019-04-22T20:53:06.903Z,13.16
2019-04-22T20:54:43.506Z,13.18
2019-04-22T20:56:18.792Z,13.05
2019-04-22T20:58:10.186Z,13.00
2019-04-22T20:59:46.937Z,12.84
2019-04-22T21:01:22.366Z,12.85
2019-04-22T21:02:54.013Z,12.88
2019-04-22T21:04:35.966Z,12.76
2019-04-22T21:06:24.957Z,12.73
2019-04-22T21:08:12.570Z,12.70
2019-04-22T21:09:43.174Z,12.74
2019-04-22T21:11:19.634Z,12.77
2019-04-22T21:13:01.721Z,12.72
2019-04-22T21:14:46.017Z,12.67
2019-04-22T21:16:31.411Z,12.66
2019-04-22T21:18:08.239Z,12.65
2019-04-22T21:20:00.734Z,12.67
2019-04-22T21:21:33.313Z,12.65
2019-04-22T21:23:16.419Z,12.59
2019-04-22T21:24:53.666Z,12.54
2019-04-22T21:26:39.519Z,12.51
2019-04-22T21:28:21.507Z,12.47
2019-04-22T21:29:50.746Z,12.40
2019-04-22T21:31:46.461Z,12.36
2019-04-22T21:33:16.258Z,12.43
2019-04-22T21:35:06.665Z,12.42
2019-04-22T21:36:56.078Z,12.34
2019-04-22T21:38:26.666Z,12.33
2019-04-22T21:40:10.605Z,12.36
2019-04-22T21:41:52.480Z,12.31
2019-04-22T21:43:29.955Z,12.31
2019-04-22T21:45:01.829Z,12.35
2019-04-22T21:46:57.860Z,12.35
2019-04-22T21:48:44.869Z,12.24
2019-04-22T21:50:21.348Z,12.25
2019-04-22T21:51:48.528Z,12.25
2019-04-22T21:53:25.478Z,12.17
2019-04-22T21:55:03.949Z,12.15
2019-04-22T21:56:55.156Z,12.10
2019-04-22T21:58:31.550Z,12.08
2019-04-22T22:00:17.039Z,11.96
2019-04-22T22:01:52.561Z,11.89
2019-04-22T22:03:35.295Z,11.86
2019-04-22T22:05:04.507Z,11.87
2019-04-22T22:06:39.666Z,11.87
2019-04-22T22:08:32.163Z,11.90
2019-04-22T22:10:05.953Z,11.91
2019-04-22T22:11:52.609Z,11.92
2019-04-22T22:13:38.641Z,11.93
2019-04-22T22:15:22.501Z,11.90
2019-04-22T22:16:50.847Z,11.82
2019-04-22T22:18:30.755Z,11.75
2019-04-22T22:20:06.161Z,11.75
2019-04-22T22:23:31.818Z,11.60
2019-04-22T22:25:02.872Z,11.55
2019-04-22T22:26:44.775Z,11.54
2019-04-22T22:28:34.845Z,11.47
2019-04-22T22:30:06.630Z,11.41
2019-04-22T22:33:10.681Z,11.27
2019-04-22T22:34:50.768Z,11.22
2019-04-22T22:36:23.792Z,11.22
2019-04-22T22:38:05.262Z,11.24
2019-04-22T22:39:38.055Z,11.18
2019-04-22T22:41:05.785Z,11.18
2019-04-22T22:42:45.626Z,11.12
2019-04-22T22:44:25.014Z,11.07
2019-04-22T22:46:08.946Z,11.10
2019-04-22T22:47:54.059Z,11.01
2019-04-22T22:49:34.436Z,11.04
2019-04-22T22:51:04.978Z,10.96
2019-04-22T22:54:23.660Z,10.92
2019-04-22T22:55:57.681Z,10.89
2019-04-22T22:57:38.318Z,10.84
2019-04-22T22:59:18.120Z,10.86
2019-04-22T23:00:51.117Z,10.81
2019-04-22T23:02:36.884Z,10.79
2019-04-22T23:04:18.048Z,10.74
2019-04-22T23:05:54.850Z,10.76
2019-04-22T23:07:30.111Z,10.72
2019-04-22T23:09:09.558Z,10.70
2019-04-22T23:10:52.890Z,10.62